sensor_id;sensor_type;location;lat;lon;timestamp;temperature;humidity
28959;DHT22;16066;0.000;0.000;2024-03-06T06:01:54;20.60;44.40
28959;DHT22;16066;0.000;0.000;2024-03-06T06:04:20;20.70;44.30
28959;DHT22;16066;0.000;0.000;2024-03-06T06:06:45;20.70;44.30
28959;DHT22;16066;0.000;0.000;2024-03-06T06:09:11;20.70;44.10
28959;DHT22;16066;0.000;0.000;2024-03-06T06:11:42;20.80;44.20
28959;DHT22;16066;0.000;0.000;2024-03-06T06:14:08;20.80;44.20
28959;DHT22;16066;0.000;0.000;2024-03-06T06:16:41;20.90;44.10
28959;DHT22;16066;0.000;0.000;2024-03-06T06:19:07;20.90;44.00
28959;DHT22;16066;0.000;0.000;2024-03-06T06:21:34;20.90;43.90
28959;DHT22;16066;0.000;0.000;2024-03-06T06:24:02;20.90;43.90
28959;DHT22;16066;0.000;0.000;2024-03-06T06:26:29;21.00;43.90
28959;DHT22;16066;0.000;0.000;2024-03-06T06:28:55;21.00;43.80
28959;DHT22;16066;0.000;0.000;2024-03-06T06:31:20;21.00;43.70
28959;DHT22;16066;0.000;0.000;2024-03-06T06:33:46;21.00;43.70
28959;DHT22;16066;0.000;0.000;2024-03-06T06:36:12;21.00;43.70
28959;DHT22;16066;0.000;0.000;2024-03-06T06:38:38;21.00;44.10
28959;DHT22;16066;0.000;0.000;2024-03-06T06:41:03;21.00;43.50
28959;DHT22;16066;0.000;0.000;2024-03-06T06:43:29;21.10;43.70
28959;DHT22;16066;0.000;0.000;2024-03-06T06:45:55;21.10;43.30
28959;DHT22;16066;0.000;0.000;2024-03-06T06:48:21;21.10;43.30
28959;DHT22;16066;0.000;0.000;2024-03-06T06:50:46;21.10;43.20
28959;DHT22;16066;0.000;0.000;2024-03-06T06:53:13;21.10;43.20
28959;DHT22;16066;0.000;0.000;2024-03-06T06:55:39;21.20;42.90
28959;DHT22;16066;0.000;0.000;2024-03-06T06:58:04;21.30;42.80
28959;DHT22;16066;0.000;0.000;2024-03-06T07:00:30;21.30;42.70
28959;DHT22;16066;0.000;0.000;2024-03-06T07:02:56;21.40;42.70
28959;DHT22;16066;0.000;0.000;2024-03-06T07:05:24;21.40;42.50
28959;DHT22;16066;0.000;0.000;2024-03-06T07:07:49;21.50;42.50
28959;DHT22;16066;0.000;0.000;2024-03-06T07:10:15;21.50;42.30
28959;DHT22;16066;0.000;0.000;2024-03-06T07:12:40;21.50;42.10
28959;DHT22;16066;0.000;0.000;2024-03-06T07:15:06;21.60;42.00
28959;DHT22;16066;0.000;0.000;2024-03-06T07:17:32;21.60;41.90
28959;DHT22;16066;0.000;0.000;2024-03-06T07:19:58;21.60;41.90
28959;DHT22;16066;0.000;0.000;2024-03-06T07:22:24;21.70;41.80
28959;DHT22;16066;0.000;0.000;2024-03-06T07:24:50;21.70;41.70
28959;DHT22;16066;0.000;0.000;2024-03-06T07:27:15;21.70;41.70
28959;DHT22;16066;0.000;0.000;2024-03-06T07:29:41;21.70;41.60
28959;DHT22;16066;0.000;0.000;2024-03-06T07:32:06;21.70;41.70
28959;DHT22;16066;0.000;0.000;2024-03-06T07:34:32;21.70;41.60
28959;DHT22;16066;0.000;0.000;2024-03-06T07:36:58;21.80;41.60
28959;DHT22;16066;0.000;0.000;2024-03-06T07:39:27;21.80;41.80
28959;DHT22;16066;0.000;0.000;2024-03-06T07:41:52;21.80;41.70
28959;DHT22;16066;0.000;0.000;2024-03-06T07:44:18;21.80;41.90
28959;DHT22;16066;0.000;0.000;2024-03-06T07:46:45;21.80;41.90
28959;DHT22;16066;0.000;0.000;2024-03-06T07:49:11;21.90;42.00
28959;DHT22;16066;0.000;0.000;2024-03-06T07:51:36;21.90;42.00
28959;DHT22;16066;0.000;0.000;2024-03-06T07:54:02;21.90;42.00
28959;DHT22;16066;0.000;0.000;2024-03-06T07:56:29;21.90;42.80
28959;DHT22;16066;0.000;0.000;2024-03-06T07:58:55;21.90;42.10
28959;DHT22;16066;0.000;0.000;2024-03-06T08:01:21;21.90;42.10
28959;DHT22;16066;0.000;0.000;2024-03-06T08:03:48;21.80;42.10
28959;DHT22;16066;0.000;0.000;2024-03-06T08:06:13;21.80;42.00
28959;DHT22;16066;0.000;0.000;2024-03-06T08:08:42;21.80;42.20
28959;DHT22;16066;0.000;0.000;2024-03-06T08:11:10;21.80;42.20
28959;DHT22;16066;0.000;0.000;2024-03-06T08:13:36;21.80;42.20
28959;DHT22;16066;0.000;0.000;2024-03-06T08:16:02;21.80;42.30
28959;DHT22;16066;0.000;0.000;2024-03-06T08:18:29;21.80;42.30
28959;DHT22;16066;0.000;0.000;2024-03-06T08:20:54;21.80;42.40
28959;DHT22;16066;0.000;0.000;2024-03-06T08:23:20;21.80;42.30
28959;DHT22;16066;0.000;0.000;2024-03-06T08:25:46;21.90;42.40
28959;DHT22;16066;0.000;0.000;2024-03-06T08:28:12;21.90;42.40
28959;DHT22;16066;0.000;0.000;2024-03-06T08:30:37;21.90;42.40
28959;DHT22;16066;0.000;0.000;2024-03-06T08:33:03;21.80;42.50
28959;DHT22;16066;0.000;0.000;2024-03-06T08:35:29;21.70;42.40
28959;DHT22;16066;0.000;0.000;2024-03-06T08:37:55;21.70;42.60
28959;DHT22;16066;0.000;0.000;2024-03-06T08:40:21;21.70;42.60
28959;DHT22;16066;0.000;0.000;2024-03-06T08:42:47;21.60;42.60
28959;DHT22;16066;0.000;0.000;2024-03-06T08:45:14;21.70;42.50
28959;DHT22;16066;0.000;0.000;2024-03-06T08:47:40;21.60;42.60
28959;DHT22;16066;0.000;0.000;2024-03-06T08:50:06;21.60;42.60
28959;DHT22;16066;0.000;0.000;2024-03-06T08:52:33;21.60;42.60
28959;DHT22;16066;0.000;0.000;2024-03-06T08:55:00;21.60;42.50
28959;DHT22;16066;0.000;0.000;2024-03-06T08:57:25;21.60;42.30
28959;DHT22;16066;0.000;0.000;2024-03-06T08:59:56;21.50;41.80
28959;DHT22;16066;0.000;0.000;2024-03-06T09:02:22;21.40;41.50
28959;DHT22;16066;0.000;0.000;2024-03-06T09:04:48;21.40;41.30
28959;DHT22;16066;0.000;0.000;2024-03-06T09:07:14;21.40;41.60
28959;DHT22;16066;0.000;0.000;2024-03-06T09:09:40;21.40;41.80
28959;DHT22;16066;0.000;0.000;2024-03-06T09:12:07;21.40;41.80
28959;DHT22;16066;0.000;0.000;2024-03-06T09:14:36;21.40;41.90
28959;DHT22;16066;0.000;0.000;2024-03-06T09:17:02;21.40;42.10
28959;DHT22;16066;0.000;0.000;2024-03-06T09:19:28;21.40;43.30
28959;DHT22;16066;0.000;0.000;2024-03-06T09:21:54;21.40;42.50
28959;DHT22;16066;0.000;0.000;2024-03-06T09:24:23;21.40;42.40
28959;DHT22;16066;0.000;0.000;2024-03-06T09:26:50;21.50;42.60
28959;DHT22;16066;0.000;0.000;2024-03-06T09:29:16;21.50;42.60
28959;DHT22;16066;0.000;0.000;2024-03-06T09:31:42;21.50;42.50
28959;DHT22;16066;0.000;0.000;2024-03-06T09:34:08;21.60;42.50
28959;DHT22;16066;0.000;0.000;2024-03-06T09:36:38;21.60;42.40
28959;DHT22;16066;0.000;0.000;2024-03-06T09:39:03;21.60;42.10
28959;DHT22;16066;0.000;0.000;2024-03-06T09:41:33;21.50;41.70
28959;DHT22;16066;0.000;0.000;2024-03-06T09:43:59;21.60;42.00
28959;DHT22;16066;0.000;0.000;2024-03-06T09:46:26;21.60;42.00
28959;DHT22;16066;0.000;0.000;2024-03-06T09:48:52;21.70;42.20
28959;DHT22;16066;0.000;0.000;2024-03-06T09:51:18;21.80;42.40
28959;DHT22;16066;0.000;0.000;2024-03-06T09:53:46;21.80;42.30
28959;DHT22;16066;0.000;0.000;2024-03-06T09:56:15;21.80;42.10
28959;DHT22;16066;0.000;0.000;2024-03-06T09:58:40;21.90;42.20
28959;DHT22;16066;0.000;0.000;2024-03-06T10:01:07;21.90;42.70
28959;DHT22;16066;0.000;0.000;2024-03-06T10:03:33;21.90;42.10
28959;DHT22;16066;0.000;0.000;2024-03-06T10:06:00;21.90;42.20
28959;DHT22;16066;0.000;0.000;2024-03-06T10:08:25;22.00;42.20
28959;DHT22;16066;0.000;0.000;2024-03-06T10:10:52;22.00;42.10
28959;DHT22;16066;0.000;0.000;2024-03-06T10:13:17;22.10;42.20
28959;DHT22;16066;0.000;0.000;2024-03-06T10:15:59;22.10;42.40
28959;DHT22;16066;0.000;0.000;2024-03-06T10:18:29;22.00;42.20
28959;DHT22;16066;0.000;0.000;2024-03-06T10:20:55;22.00;42.30
28959;DHT22;16066;0.000;0.000;2024-03-06T10:23:21;22.00;42.40
28959;DHT22;16066;0.000;0.000;2024-03-06T10:25:47;22.00;42.30
28959;DHT22;16066;0.000;0.000;2024-03-06T10:28:17;22.00;42.50
28959;DHT22;16066;0.000;0.000;2024-03-06T10:30:43;22.00;42.50
28959;DHT22;16066;0.000;0.000;2024-03-06T10:33:10;22.00;42.50
28959;DHT22;16066;0.000;0.000;2024-03-06T10:35:36;22.00;42.60
28959;DHT22;16066;0.000;0.000;2024-03-06T10:38:06;22.00;43.10
28959;DHT22;16066;0.000;0.000;2024-03-06T10:40:37;22.00;42.80
28959;DHT22;16066;0.000;0.000;2024-03-06T10:43:04;22.00;43.10
28959;DHT22;16066;0.000;0.000;2024-03-06T10:47:58;22.00;43.20
28959;DHT22;16066;0.000;0.000;2024-03-06T10:50:25;22.00;43.10
28959;DHT22;16066;0.000;0.000;2024-03-06T10:52:53;22.00;42.90
28959;DHT22;16066;0.000;0.000;2024-03-06T10:55:20;21.90;42.20
28959;DHT22;16066;0.000;0.000;2024-03-06T10:57:46;21.90;42.10
28959;DHT22;16066;0.000;0.000;2024-03-06T11:00:14;21.80;42.10
28959;DHT22;16066;0.000;0.000;2024-03-06T11:02:46;21.80;41.70
28959;DHT22;16066;0.000;0.000;2024-03-06T11:05:14;21.80;42.40
28959;DHT22;16066;0.000;0.000;2024-03-06T11:07:39;21.70;42.00
28959;DHT22;16066;0.000;0.000;2024-03-06T11:10:05;21.70;42.10
28959;DHT22;16066;0.000;0.000;2024-03-06T11:12:38;21.70;41.90
28959;DHT22;16066;0.000;0.000;2024-03-06T11:15:16;21.70;41.10
28959;DHT22;16066;0.000;0.000;2024-03-06T11:17:42;21.70;41.10
28959;DHT22;16066;0.000;0.000;2024-03-06T11:20:13;21.70;41.10
28959;DHT22;16066;0.000;0.000;2024-03-06T11:31:06;21.60;40.90
28959;DHT22;16066;0.000;0.000;2024-03-06T11:33:42;21.50;40.20
28959;DHT22;16066;0.000;0.000;2024-03-06T11:41:24;21.50;39.90
28959;DHT22;16066;0.000;0.000;2024-03-06T11:43:51;21.50;39.00
28959;DHT22;16066;0.000;0.000;2024-03-06T11:46:19;21.50;39.80
28959;DHT22;16066;0.000;0.000;2024-03-06T11:48:55;21.50;39.70
28959;DHT22;16066;0.000;0.000;2024-03-06T11:51:24;21.60;39.90
28959;DHT22;16066;0.000;0.000;2024-03-06T11:53:50;21.60;39.80
28959;DHT22;16066;0.000;0.000;2024-03-06T11:56:18;21.60;39.70
28959;DHT22;16066;0.000;0.000;2024-03-06T11:58:44;21.60;39.90
28959;DHT22;16066;0.000;0.000;2024-03-06T12:01:10;21.70;39.70
28959;DHT22;16066;0.000;0.000;2024-03-06T12:03:36;21.70;40.00
28959;DHT22;16066;0.000;0.000;2024-03-06T12:06:01;21.70;39.80
28959;DHT22;16066;0.000;0.000;2024-03-06T12:08:28;21.70;39.90
28959;DHT22;16066;0.000;0.000;2024-03-06T12:10:54;21.70;40.00
28959;DHT22;16066;0.000;0.000;2024-03-06T12:13:24;21.70;39.90
28959;DHT22;16066;0.000;0.000;2024-03-06T12:15:50;21.80;39.30
28959;DHT22;16066;0.000;0.000;2024-03-06T12:18:17;21.80;39.70
28959;DHT22;16066;0.000;0.000;2024-03-06T12:20:44;21.90;39.60
28959;DHT22;16066;0.000;0.000;2024-03-06T12:23:21;22.10;39.80
28959;DHT22;16066;0.000;0.000;2024-03-06T12:25:48;22.20;39.40
28959;DHT22;16066;0.000;0.000;2024-03-06T12:28:14;22.30;39.30
28959;DHT22;16066;0.000;0.000;2024-03-06T12:30:41;22.60;39.30
28959;DHT22;16066;0.000;0.000;2024-03-06T12:33:10;22.90;38.90
28959;DHT22;16066;0.000;0.000;2024-03-06T12:35:40;23.10;37.90
28959;DHT22;16066;0.000;0.000;2024-03-06T12:38:15;23.30;37.50
28959;DHT22;16066;0.000;0.000;2024-03-06T12:40:42;23.40;37.00
28959;DHT22;16066;0.000;0.000;2024-03-06T12:43:08;23.20;37.00
28959;DHT22;16066;0.000;0.000;2024-03-06T12:45:35;23.00;36.80
28959;DHT22;16066;0.000;0.000;2024-03-06T12:48:01;22.80;37.10
28959;DHT22;16066;0.000;0.000;2024-03-06T12:50:28;22.60;37.20
28959;DHT22;16066;0.000;0.000;2024-03-06T12:52:54;22.40;36.90
28959;DHT22;16066;0.000;0.000;2024-03-06T12:55:19;22.10;35.80
28959;DHT22;16066;0.000;0.000;2024-03-06T12:57:45;21.90;35.00
28959;DHT22;16066;0.000;0.000;2024-03-06T13:00:11;21.70;35.10
28959;DHT22;16066;0.000;0.000;2024-03-06T13:02:45;21.60;35.60
28959;DHT22;16066;0.000;0.000;2024-03-06T13:05:11;21.50;35.60
28959;DHT22;16066;0.000;0.000;2024-03-06T13:07:36;21.50;35.80
28959;DHT22;16066;0.000;0.000;2024-03-06T13:10:03;21.40;36.00
28959;DHT22;16066;0.000;0.000;2024-03-06T13:12:28;21.30;36.40
28959;DHT22;16066;0.000;0.000;2024-03-06T13:14:54;21.30;36.40
28959;DHT22;16066;0.000;0.000;2024-03-06T13:17:20;21.20;36.20
28959;DHT22;16066;0.000;0.000;2024-03-06T13:19:45;21.10;36.10
28959;DHT22;16066;0.000;0.000;2024-03-06T13:22:11;21.10;36.10
28959;DHT22;16066;0.000;0.000;2024-03-06T13:24:37;21.10;36.50
28959;DHT22;16066;0.000;0.000;2024-03-06T13:27:03;21.10;36.70
28959;DHT22;16066;0.000;0.000;2024-03-06T13:29:29;21.10;36.60
28959;DHT22;16066;0.000;0.000;2024-03-06T13:31:55;21.10;36.60
28959;DHT22;16066;0.000;0.000;2024-03-06T13:34:20;21.10;37.00
28959;DHT22;16066;0.000;0.000;2024-03-06T13:36:46;21.10;37.70
28959;DHT22;16066;0.000;0.000;2024-03-06T13:39:11;21.20;38.00
28959;DHT22;16066;0.000;0.000;2024-03-06T13:41:37;21.30;38.30
28959;DHT22;16066;0.000;0.000;2024-03-06T13:44:02;21.40;38.50
28959;DHT22;16066;0.000;0.000;2024-03-06T13:46:28;21.50;38.70
28959;DHT22;16066;0.000;0.000;2024-03-06T13:48:53;21.50;38.60
28959;DHT22;16066;0.000;0.000;2024-03-06T13:51:19;21.60;38.60
28959;DHT22;16066;0.000;0.000;2024-03-06T13:53:44;21.70;38.70
28959;DHT22;16066;0.000;0.000;2024-03-06T13:56:10;21.70;38.70
28959;DHT22;16066;0.000;0.000;2024-03-06T13:58:35;21.80;39.50
28959;DHT22;16066;0.000;0.000;2024-03-06T14:01:01;21.80;39.20
28959;DHT22;16066;0.000;0.000;2024-03-06T14:03:27;21.80;39.30
28959;DHT22;16066;0.000;0.000;2024-03-06T14:05:53;21.80;39.90
28959;DHT22;16066;0.000;0.000;2024-03-06T14:08:18;21.90;40.30
28959;DHT22;16066;0.000;0.000;2024-03-06T14:10:44;21.90;40.90
28959;DHT22;16066;0.000;0.000;2024-03-06T14:13:11;21.90;41.00
28959;DHT22;16066;0.000;0.000;2024-03-06T14:15:36;21.90;41.90
28959;DHT22;16066;0.000;0.000;2024-03-06T14:18:02;22.00;42.00
28959;DHT22;16066;0.000;0.000;2024-03-06T14:20:27;22.00;42.30
28959;DHT22;16066;0.000;0.000;2024-03-06T14:22:53;22.00;42.60
28959;DHT22;16066;0.000;0.000;2024-03-06T14:25:19;22.00;42.70
28959;DHT22;16066;0.000;0.000;2024-03-06T14:27:46;22.00;42.50
28959;DHT22;16066;0.000;0.000;2024-03-06T14:30:12;22.10;42.50
28959;DHT22;16066;0.000;0.000;2024-03-06T14:32:39;22.00;42.40
28959;DHT22;16066;0.000;0.000;2024-03-06T14:35:05;22.10;42.40
28959;DHT22;16066;0.000;0.000;2024-03-06T14:37:30;22.00;42.00
28959;DHT22;16066;0.000;0.000;2024-03-06T14:39:56;22.00;41.90
28959;DHT22;16066;0.000;0.000;2024-03-06T14:42:22;22.00;41.70
28959;DHT22;16066;0.000;0.000;2024-03-06T14:44:48;22.00;41.60
28959;DHT22;16066;0.000;0.000;2024-03-06T14:47:14;22.00;41.60
28959;DHT22;16066;0.000;0.000;2024-03-06T14:49:41;22.00;41.60
28959;DHT22;16066;0.000;0.000;2024-03-06T14:52:07;22.00;41.60
28959;DHT22;16066;0.000;0.000;2024-03-06T14:54:34;22.00;41.50
28959;DHT22;16066;0.000;0.000;2024-03-06T14:57:00;22.00;41.30
28959;DHT22;16066;0.000;0.000;2024-03-06T14:59:25;22.00;41.40
28959;DHT22;16066;0.000;0.000;2024-03-06T15:01:51;22.00;41.30
28959;DHT22;16066;0.000;0.000;2024-03-06T15:04:16;22.00;41.20
28959;DHT22;16066;0.000;0.000;2024-03-06T15:06:42;22.00;41.20
28959;DHT22;16066;0.000;0.000;2024-03-06T15:09:08;22.00;41.10
28959;DHT22;16066;0.000;0.000;2024-03-06T15:11:39;22.00;41.00
28959;DHT22;16066;0.000;0.000;2024-03-06T15:14:04;22.00;41.00
28959;DHT22;16066;0.000;0.000;2024-03-06T15:16:30;22.00;41.50
28959;DHT22;16066;0.000;0.000;2024-03-06T15:18:56;22.00;40.90
28959;DHT22;16066;0.000;0.000;2024-03-06T15:21:23;22.00;40.80
28959;DHT22;16066;0.000;0.000;2024-03-06T15:23:48;22.00;40.80
28959;DHT22;16066;0.000;0.000;2024-03-06T15:26:15;22.00;40.80
28959;DHT22;16066;0.000;0.000;2024-03-06T15:28:41;22.00;40.80
28959;DHT22;16066;0.000;0.000;2024-03-06T15:31:07;22.00;40.80
28959;DHT22;16066;0.000;0.000;2024-03-06T15:33:32;22.00;40.70
28959;DHT22;16066;0.000;0.000;2024-03-06T15:35:59;22.00;40.60
28959;DHT22;16066;0.000;0.000;2024-03-06T15:38:25;22.00;40.60
28959;DHT22;16066;0.000;0.000;2024-03-06T15:40:52;22.00;40.60
28959;DHT22;16066;0.000;0.000;2024-03-06T15:43:17;22.00;40.60
28959;DHT22;16066;0.000;0.000;2024-03-06T15:45:43;22.00;40.60
28959;DHT22;16066;0.000;0.000;2024-03-06T15:48:09;21.90;40.60
28959;DHT22;16066;0.000;0.000;2024-03-06T15:50:42;22.00;40.60
28959;DHT22;16066;0.000;0.000;2024-03-06T15:53:08;21.90;40.70
28959;DHT22;16066;0.000;0.000;2024-03-06T15:55:34;21.90;40.50
28959;DHT22;16066;0.000;0.000;2024-03-06T15:58:03;21.90;40.60
28959;DHT22;16066;0.000;0.000;2024-03-06T16:00:30;21.90;40.40
28959;DHT22;16066;0.000;0.000;2024-03-06T16:02:55;21.90;40.40
28959;DHT22;16066;0.000;0.000;2024-03-06T16:05:21;21.90;40.40
28959;DHT22;16066;0.000;0.000;2024-03-06T16:07:46;21.90;40.40
28959;DHT22;16066;0.000;0.000;2024-03-06T16:10:12;21.80;40.40
28959;DHT22;16066;0.000;0.000;2024-03-06T16:12:37;21.90;40.50
28959;DHT22;16066;0.000;0.000;2024-03-06T16:15:04;21.90;40.50
28959;DHT22;16066;0.000;0.000;2024-03-06T16:17:30;21.90;40.50
28959;DHT22;16066;0.000;0.000;2024-03-06T16:19:56;21.90;40.40
28959;DHT22;16066;0.000;0.000;2024-03-06T16:22:22;21.90;40.40
28959;DHT22;16066;0.000;0.000;2024-03-06T16:24:48;21.80;40.30
28959;DHT22;16066;0.000;0.000;2024-03-06T16:27:14;21.90;40.20
28959;DHT22;16066;0.000;0.000;2024-03-06T16:29:40;21.90;40.40
28959;DHT22;16066;0.000;0.000;2024-03-06T16:32:05;21.80;40.30
28959;DHT22;16066;0.000;0.000;2024-03-06T16:34:32;21.80;40.20
28959;DHT22;16066;0.000;0.000;2024-03-06T16:36:58;21.80;40.30
28959;DHT22;16066;0.000;0.000;2024-03-06T16:39:25;21.80;40.20
28959;DHT22;16066;0.000;0.000;2024-03-06T16:41:51;21.80;40.20
28959;DHT22;16066;0.000;0.000;2024-03-06T16:44:16;21.80;40.10
28959;DHT22;16066;0.000;0.000;2024-03-06T16:46:41;21.80;40.10
28959;DHT22;16066;0.000;0.000;2024-03-06T16:49:07;21.80;40.00
28959;DHT22;16066;0.000;0.000;2024-03-06T16:51:33;21.80;40.00
28959;DHT22;16066;0.000;0.000;2024-03-06T16:53:59;21.80;40.00
28959;DHT22;16066;0.000;0.000;2024-03-06T16:56:28;21.80;40.30
28959;DHT22;16066;0.000;0.000;2024-03-06T16:58:54;21.80;40.20
28959;DHT22;16066;0.000;0.000;2024-03-06T17:01:20;21.80;40.30
28959;DHT22;16066;0.000;0.000;2024-03-06T17:03:45;21.80;40.30
28959;DHT22;16066;0.000;0.000;2024-03-06T17:06:11;21.80;40.30
28959;DHT22;16066;0.000;0.000;2024-03-06T17:08:37;21.80;40.30
28959;DHT22;16066;0.000;0.000;2024-03-06T17:11:02;21.80;40.30
28959;DHT22;16066;0.000;0.000;2024-03-06T17:13:28;21.80;40.20
28959;DHT22;16066;0.000;0.000;2024-03-06T17:15:53;21.80;40.00
28959;DHT22;16066;0.000;0.000;2024-03-06T17:18:20;21.80;40.00
28959;DHT22;16066;0.000;0.000;2024-03-06T17:20:47;21.80;39.80
28959;DHT22;16066;0.000;0.000;2024-03-06T17:23:12;21.80;39.90
28959;DHT22;16066;0.000;0.000;2024-03-06T17:25:38;21.80;39.80
28959;DHT22;16066;0.000;0.000;2024-03-06T17:28:04;21.80;39.70
28959;DHT22;16066;0.000;0.000;2024-03-06T17:30:29;21.80;39.70
28959;DHT22;16066;0.000;0.000;2024-03-06T17:32:55;21.80;39.70
28959;DHT22;16066;0.000;0.000;2024-03-06T17:35:21;21.80;39.70
28959;DHT22;16066;0.000;0.000;2024-03-06T17:37:47;21.80;39.70
28959;DHT22;16066;0.000;0.000;2024-03-06T17:40:14;21.80;39.70
28959;DHT22;16066;0.000;0.000;2024-03-06T17:42:39;21.80;39.70
28959;DHT22;16066;0.000;0.000;2024-03-06T17:45:06;21.80;39.60
28959;DHT22;16066;0.000;0.000;2024-03-06T17:47:32;21.80;39.60
28959;DHT22;16066;0.000;0.000;2024-03-06T17:49:59;21.80;39.50
28959;DHT22;16066;0.000;0.000;2024-03-06T17:52:25;21.80;39.60
28959;DHT22;16066;0.000;0.000;2024-03-06T17:54:50;21.80;39.60
28959;DHT22;16066;0.000;0.000;2024-03-06T17:57:16;21.80;39.60
28959;DHT22;16066;0.000;0.000;2024-03-06T17:59:41;21.70;39.10
28959;DHT22;16066;0.000;0.000;2024-03-06T18:02:07;21.70;39.40
28959;DHT22;16066;0.000;0.000;2024-03-06T18:04:33;21.70;39.60
28959;DHT22;16066;0.000;0.000;2024-03-06T18:06:58;21.70;39.70
28959;DHT22;16066;0.000;0.000;2024-03-06T18:09:24;21.70;39.70
28959;DHT22;16066;0.000;0.000;2024-03-06T18:11:49;21.70;39.60
28959;DHT22;16066;0.000;0.000;2024-03-06T18:14:16;21.80;39.90
28959;DHT22;16066;0.000;0.000;2024-03-06T18:16:44;21.70;39.50
28959;DHT22;16066;0.000;0.000;2024-03-06T18:19:10;21.80;39.90
28959;DHT22;16066;0.000;0.000;2024-03-06T18:21:36;21.80;39.70
28959;DHT22;16066;0.000;0.000;2024-03-06T18:24:01;21.80;39.40
28959;DHT22;16066;0.000;0.000;2024-03-06T18:26:27;21.70;39.30
28959;DHT22;16066;0.000;0.000;2024-03-06T18:28:52;21.70;39.50
28959;DHT22;16066;0.000;0.000;2024-03-06T18:31:18;21.70;39.60
28959;DHT22;16066;0.000;0.000;2024-03-06T18:33:43;21.70;39.60
28959;DHT22;16066;0.000;0.000;2024-03-06T18:36:09;21.70;39.60
28959;DHT22;16066;0.000;0.000;2024-03-06T18:38:34;21.70;39.60
28959;DHT22;16066;0.000;0.000;2024-03-06T18:41:00;21.70;39.50
28959;DHT22;16066;0.000;0.000;2024-03-06T18:43:26;21.70;39.40
28959;DHT22;16066;0.000;0.000;2024-03-06T18:45:52;21.70;39.40
28959;DHT22;16066;0.000;0.000;2024-03-06T18:48:17;21.80;39.50
28959;DHT22;16066;0.000;0.000;2024-03-06T18:50:43;21.80;39.50
28959;DHT22;16066;0.000;0.000;2024-03-06T18:53:09;21.80;39.50
28959;DHT22;16066;0.000;0.000;2024-03-06T18:55:35;21.80;39.40
28959;DHT22;16066;0.000;0.000;2024-03-06T18:58:02;21.80;39.30
28959;DHT22;16066;0.000;0.000;2024-03-06T19:00:29;21.80;39.40
28959;DHT22;16066;0.000;0.000;2024-03-06T19:02:55;21.80;39.40
28959;DHT22;16066;0.000;0.000;2024-03-06T19:05:20;21.80;39.20
28959;DHT22;16066;0.000;0.000;2024-03-06T19:07:46;21.90;43.10
28959;DHT22;16066;0.000;0.000;2024-03-06T19:10:12;21.90;39.30
28959;DHT22;16066;0.000;0.000;2024-03-06T19:12:38;21.90;39.20
28959;DHT22;16066;0.000;0.000;2024-03-06T19:15:04;21.90;39.20
28959;DHT22;16066;0.000;0.000;2024-03-06T19:17:31;21.90;39.20
28959;DHT22;16066;0.000;0.000;2024-03-06T19:19:58;21.80;39.30
28959;DHT22;16066;0.000;0.000;2024-03-06T19:22:24;21.80;39.40
28959;DHT22;16066;0.000;0.000;2024-03-06T19:24:51;21.80;39.40
28959;DHT22;16066;0.000;0.000;2024-03-06T19:27:17;21.80;39.40
28959;DHT22;16066;0.000;0.000;2024-03-06T19:29:47;21.80;39.30
28959;DHT22;16066;0.000;0.000;2024-03-06T19:32:13;21.80;39.30
28959;DHT22;16066;0.000;0.000;2024-03-06T19:34:38;21.70;39.20
28959;DHT22;16066;0.000;0.000;2024-03-06T19:37:04;21.70;39.80
28959;DHT22;16066;0.000;0.000;2024-03-06T19:39:29;21.70;39.10
28959;DHT22;16066;0.000;0.000;2024-03-06T19:41:55;21.70;39.20
28959;DHT22;16066;0.000;0.000;2024-03-06T19:44:21;21.70;39.30
28959;DHT22;16066;0.000;0.000;2024-03-06T19:46:52;21.70;39.30
28959;DHT22;16066;0.000;0.000;2024-03-06T19:49:21;21.70;39.30
28959;DHT22;16066;0.000;0.000;2024-03-06T19:51:46;21.70;39.20
28959;DHT22;16066;0.000;0.000;2024-03-06T19:54:12;21.70;39.20
28959;DHT22;16066;0.000;0.000;2024-03-06T19:56:38;21.70;39.20
28959;DHT22;16066;0.000;0.000;2024-03-06T19:59:03;21.70;39.30
28959;DHT22;16066;0.000;0.000;2024-03-06T20:01:31;21.70;39.10
28959;DHT22;16066;0.000;0.000;2024-03-06T20:03:57;21.70;39.20
28959;DHT22;16066;0.000;0.000;2024-03-06T20:06:23;21.60;39.10
28959;DHT22;16066;0.000;0.000;2024-03-06T20:08:52;21.60;39.10
28959;DHT22;16066;0.000;0.000;2024-03-06T20:11:17;21.60;39.10
28959;DHT22;16066;0.000;0.000;2024-03-06T20:13:46;21.70;39.50
28959;DHT22;16066;0.000;0.000;2024-03-06T20:16:12;21.70;39.50
28959;DHT22;16066;0.000;0.000;2024-03-06T20:18:37;21.70;39.60
28959;DHT22;16066;0.000;0.000;2024-03-06T20:21:03;21.70;39.50
28959;DHT22;16066;0.000;0.000;2024-03-06T20:23:29;21.80;39.60
28959;DHT22;16066;0.000;0.000;2024-03-06T20:25:54;21.80;40.20
28959;DHT22;16066;0.000;0.000;2024-03-06T20:28:20;21.80;39.60
28959;DHT22;16066;0.000;0.000;2024-03-06T20:30:46;21.80;39.70
28959;DHT22;16066;0.000;0.000;2024-03-06T20:33:12;21.90;39.70
28959;DHT22;16066;0.000;0.000;2024-03-06T20:35:37;21.90;39.70
28959;DHT22;16066;0.000;0.000;2024-03-06T20:38:03;21.90;39.70
28959;DHT22;16066;0.000;0.000;2024-03-06T20:40:29;21.90;39.70
28959;DHT22;16066;0.000;0.000;2024-03-06T20:42:58;21.90;39.70
28959;DHT22;16066;0.000;0.000;2024-03-06T20:45:23;21.90;39.70
28959;DHT22;16066;0.000;0.000;2024-03-06T20:47:49;21.90;39.70
28959;DHT22;16066;0.000;0.000;2024-03-06T20:50:15;22.00;39.90
28959;DHT22;16066;0.000;0.000;2024-03-06T20:52:41;21.90;39.30
28959;DHT22;16066;0.000;0.000;2024-03-06T20:55:07;21.90;39.50
28959;DHT22;16066;0.000;0.000;2024-03-06T20:57:33;21.90;39.10
28959;DHT22;16066;0.000;0.000;2024-03-06T20:59:59;21.80;39.00
28959;DHT22;16066;0.000;0.000;2024-03-06T21:02:25;21.80;38.90
28959;DHT22;16066;0.000;0.000;2024-03-06T21:04:51;21.80;39.20
28959;DHT22;16066;0.000;0.000;2024-03-06T21:07:17;21.70;39.00
28959;DHT22;16066;0.000;0.000;2024-03-06T21:09:42;21.70;39.10
28959;DHT22;16066;0.000;0.000;2024-03-06T21:12:08;21.70;39.10
28959;DHT22;16066;0.000;0.000;2024-03-06T21:14:35;21.60;38.90
28959;DHT22;16066;0.000;0.000;2024-03-06T21:17:05;21.60;39.10
28959;DHT22;16066;0.000;0.000;2024-03-06T21:19:32;21.60;39.20
28959;DHT22;16066;0.000;0.000;2024-03-06T21:21:57;21.60;39.20
28959;DHT22;16066;0.000;0.000;2024-03-06T21:24:23;21.50;39.10
28959;DHT22;16066;0.000;0.000;2024-03-06T21:26:48;21.50;39.20
28959;DHT22;16066;0.000;0.000;2024-03-06T21:29:15;21.50;39.20
28959;DHT22;16066;0.000;0.000;2024-03-06T21:31:40;21.50;39.60
28959;DHT22;16066;0.000;0.000;2024-03-06T21:34:06;21.60;39.40
28959;DHT22;16066;0.000;0.000;2024-03-06T21:36:32;21.70;39.40
28959;DHT22;16066;0.000;0.000;2024-03-06T21:38:57;21.70;39.30
28959;DHT22;16066;0.000;0.000;2024-03-06T21:41:24;21.70;39.10
28959;DHT22;16066;0.000;0.000;2024-03-06T21:43:50;21.70;39.20
28959;DHT22;16066;0.000;0.000;2024-03-06T21:46:15;21.80;39.30
28959;DHT22;16066;0.000;0.000;2024-03-06T21:48:41;21.80;39.30
28959;DHT22;16066;0.000;0.000;2024-03-06T21:51:08;21.80;39.20
28959;DHT22;16066;0.000;0.000;2024-03-06T21:53:34;21.80;39.20
28959;DHT22;16066;0.000;0.000;2024-03-06T21:55:59;21.80;39.20